sensor_id;sensor_type;location;lat;lon;timestamp;pressure;altitude;pressure_sealevel;temperature;humidity
61537;BME280;48695;53.480;-6.300;2023-01-29T00:00:48;102428.38;;;7.99;70.90
61537;BME280;48695;53.480;-6.300;2023-01-29T00:03:14;102418.84;;;8.00;70.97
61537;BME280;48695;53.480;-6.300;2023-01-29T00:05:40;102425.78;;;7.99;70.92
61537;BME280;48695;53.480;-6.300;2023-01-29T00:08:05;102412.78;;;7.99;70.92
61537;BME280;48695;53.480;-6.300;2023-01-29T00:10:30;102418.84;;;8.00;71.11
61537;BME280;48695;53.480;-6.300;2023-01-29T00:12:55;102417.97;;;7.99;70.82
61537;BME280;48695;53.480;-6.300;2023-01-29T00:15:21;102420.56;;;7.99;70.94
61537;BME280;48695;53.480;-6.300;2023-01-29T00:17:46;102426.63;;;7.98;70.81
61537;BME280;48695;53.480;-6.300;2023-01-29T00:20:11;102418.81;;;7.97;70.77
61537;BME280;48695;53.480;-6.300;2023-01-29T00:22:37;102417.94;;;7.96;70.88
61537;BME280;48695;53.480;-6.300;2023-01-29T00:25:02;102427.50;;;7.97;70.90
61537;BME280;48695;53.480;-6.300;2023-01-29T00:27:28;102420.53;;;7.96;70.78
61537;BME280;48695;53.480;-6.300;2023-01-29T00:29:53;102426.56;;;7.95;70.67
61537;BME280;48695;53.480;-6.300;2023-01-29T00:32:36;102427.44;;;7.94;71.13
61537;BME280;48695;53.480;-6.300;2023-01-29T00:35:01;102430.91;;;7.95;70.70
61537;BME280;48695;53.480;-6.300;2023-01-29T00:37:26;102423.97;;;7.94;70.67
61537;BME280;48695;53.480;-6.300;2023-01-29T00:39:51;102420.47;;;7.93;71.18
61537;BME280;48695;53.480;-6.300;2023-01-29T00:42:17;102433.50;;;7.93;71.02
61537;BME280;48695;53.480;-6.300;2023-01-29T00:45:01;102426.53;;;7.92;70.76
61537;BME280;48695;53.480;-6.300;2023-01-29T00:47:26;102424.78;;;7.91;70.90
61537;BME280;48695;53.480;-6.300;2023-01-29T00:49:54;102420.47;;;7.92;71.06
61537;BME280;48695;53.480;-6.300;2023-01-29T00:52:20;102414.41;;;7.91;70.93
61537;BME280;48695;53.480;-6.300;2023-01-29T00:54:48;102406.53;;;7.90;70.78
61537;BME280;48695;53.480;-6.300;2023-01-29T00:57:13;102403.06;;;7.89;70.71
61537;BME280;48695;53.480;-6.300;2023-01-29T00:59:38;102398.72;;;7.88;71.18
61537;BME280;48695;53.480;-6.300;2023-01-29T01:02:04;102392.66;;;7.88;71.10
61537;BME280;48695;53.480;-6.300;2023-01-29T01:04:47;102398.72;;;7.88;71.17
61537;BME280;48695;53.480;-6.300;2023-01-29T01:07:13;102391.78;;;7.87;70.89
61537;BME280;48695;53.480;-6.300;2023-01-29T01:09:38;102392.66;;;7.88;70.93
61537;BME280;48695;53.480;-6.300;2023-01-29T01:12:22;102391.78;;;7.87;71.12
61537;BME280;48695;53.480;-6.300;2023-01-29T01:14:48;102396.97;;;7.87;71.03
61537;BME280;48695;53.480;-6.300;2023-01-29T01:17:13;102394.38;;;7.87;71.18
61537;BME280;48695;53.480;-6.300;2023-01-29T01:19:39;102386.56;;;7.87;71.23
61537;BME280;48695;53.480;-6.300;2023-01-29T01:22:04;102384.84;;;7.88;70.80
61537;BME280;48695;53.480;-6.300;2023-01-29T01:24:30;102378.78;;;7.87;70.86
61537;BME280;48695;53.480;-6.300;2023-01-29T01:26:55;102374.44;;;7.86;71.18
61537;BME280;48695;53.480;-6.300;2023-01-29T01:29:20;102378.75;;;7.86;70.99
61537;BME280;48695;53.480;-6.300;2023-01-29T01:31:46;102366.56;;;7.83;71.26
61537;BME280;48695;53.480;-6.300;2023-01-29T01:34:11;102363.97;;;7.83;70.81
61537;BME280;48695;53.480;-6.300;2023-01-29T01:36:36;102361.34;;;7.82;70.96
61537;BME280;48695;53.480;-6.300;2023-01-29T01:39:02;102364.81;;;7.82;70.98
61537;BME280;48695;53.480;-6.300;2023-01-29T01:41:28;102355.28;;;7.81;70.76
61537;BME280;48695;53.480;-6.300;2023-01-29T01:46:19;102356.94;;;7.76;70.68
61537;BME280;48695;53.480;-6.300;2023-01-29T01:48:45;102362.09;;;7.74;70.71
61537;BME280;48695;53.480;-6.300;2023-01-29T01:51:13;102355.13;;;7.72;70.94
61537;BME280;48695;53.480;-6.300;2023-01-29T01:53:44;102365.47;;;7.69;70.51
61537;BME280;48695;53.480;-6.300;2023-01-29T01:56:15;102360.25;;;7.66;70.99
61537;BME280;48695;53.480;-6.300;2023-01-29T01:58:46;102356.72;;;7.64;70.50
61537;BME280;48695;53.480;-6.300;2023-01-29T02:01:14;102352.38;;;7.61;70.74
61537;BME280;48695;53.480;-6.300;2023-01-29T02:03:40;102359.25;;;7.59;71.09
61537;BME280;48695;53.480;-6.300;2023-01-29T02:06:26;102354.88;;;7.57;71.23
61537;BME280;48695;53.480;-6.300;2023-01-29T02:09:12;102354.84;;;7.53;71.18
61537;BME280;48695;53.480;-6.300;2023-01-29T02:11:59;102354.84;;;7.55;71.43
61537;BME280;48695;53.480;-6.300;2023-01-29T02:14:25;102358.28;;;7.52;71.27
61537;BME280;48695;53.480;-6.300;2023-01-29T02:16:50;102345.28;;;7.52;71.46
61537;BME280;48695;53.480;-6.300;2023-01-29T02:19:19;102343.56;;;7.53;71.53
61537;BME280;48695;53.480;-6.300;2023-01-29T02:24:36;102327.94;;;7.51;71.56
61537;BME280;48695;53.480;-6.300;2023-01-29T02:27:07;102331.44;;;7.53;71.58
61537;BME280;48695;53.480;-6.300;2023-01-29T02:29:37;102321.03;;;7.52;71.70
61537;BME280;48695;53.480;-6.300;2023-01-29T02:37:32;102306.28;;;7.52;71.61
61537;BME280;48695;53.480;-6.300;2023-01-29T02:40:04;102308.03;;;7.53;71.35
61537;BME280;48695;53.480;-6.300;2023-01-29T02:42:39;102305.44;;;7.53;71.25
61537;BME280;48695;53.480;-6.300;2023-01-29T02:45:12;102299.38;;;7.54;71.41
61537;BME280;48695;53.480;-6.300;2023-01-29T02:50:12;102295.91;;;7.54;71.56
61537;BME280;48695;53.480;-6.300;2023-01-29T02:52:40;102291.59;;;7.54;71.67
61537;BME280;48695;53.480;-6.300;2023-01-29T02:57:49;102280.38;;;7.56;71.54
61537;BME280;48695;53.480;-6.300;2023-01-29T03:00:17;102288.16;;;7.56;71.53
61537;BME280;48695;53.480;-6.300;2023-01-29T03:03:01;102282.09;;;7.57;71.56
61537;BME280;48695;53.480;-6.300;2023-01-29T03:05:30;102292.50;;;7.57;71.52
61537;BME280;48695;53.480;-6.300;2023-01-29T03:08:00;102284.69;;;7.57;72.12
61537;BME280;48695;53.480;-6.300;2023-01-29T03:10:36;102276.91;;;7.57;72.01
61537;BME280;48695;53.480;-6.300;2023-01-29T03:13:17;102282.91;;;7.54;72.05
61537;BME280;48695;53.480;-6.300;2023-01-29T03:15:47;102282.91;;;7.54;72.07
61537;BME280;48695;53.480;-6.300;2023-01-29T03:18:19;102273.38;;;7.53;72.15
61537;BME280;48695;53.480;-6.300;2023-01-29T03:20:50;102275.97;;;7.53;72.05
61537;BME280;48695;53.480;-6.300;2023-01-29T03:23:21;102270.75;;;7.51;71.83
61537;BME280;48695;53.480;-6.300;2023-01-29T03:25:51;102269.03;;;7.52;71.84
61537;BME280;48695;53.480;-6.300;2023-01-29T03:28:37;102274.22;;;7.50;72.09
61537;BME280;48695;53.480;-6.300;2023-01-29T03:31:22;102269.91;;;7.51;71.65
61537;BME280;48695;53.480;-6.300;2023-01-29T03:34:09;102263.81;;;7.50;72.12
61537;BME280;48695;53.480;-6.300;2023-01-29T03:36:49;102269.03;;;7.50;72.09
61537;BME280;48695;53.480;-6.300;2023-01-29T03:39:20;102266.41;;;7.50;72.07
61537;BME280;48695;53.480;-6.300;2023-01-29T03:42:15;102250.81;;;7.50;72.08
61537;BME280;48695;53.480;-6.300;2023-01-29T03:44:33;102242.16;;;7.51;72.09
61537;BME280;48695;53.480;-6.300;2023-01-29T03:47:19;102241.28;;;7.51;72.04
61537;BME280;48695;53.480;-6.300;2023-01-29T03:50:06;102238.66;;;7.49;71.67
61537;BME280;48695;53.480;-6.300;2023-01-29T03:55:22;102233.44;;;7.48;71.50
61537;BME280;48695;53.480;-6.300;2023-01-29T04:00:27;102224.72;;;7.44;71.38
61537;BME280;48695;53.480;-6.300;2023-01-29T04:05:20;102209.03;;;7.38;71.12
61537;BME280;48695;53.480;-6.300;2023-01-29T04:07:47;102209.84;;;7.34;71.60
61537;BME280;48695;53.480;-6.300;2023-01-29T04:10:15;102202.03;;;7.31;71.10
61537;BME280;48695;53.480;-6.300;2023-01-29T04:12:43;102207.16;;;7.28;71.21
61537;BME280;48695;53.480;-6.300;2023-01-29T04:15:12;102214.88;;;7.23;71.21
61537;BME280;48695;53.480;-6.300;2023-01-29T04:17:40;102203.53;;;7.18;71.31
61537;BME280;48695;53.480;-6.300;2023-01-29T04:20:07;102199.16;;;7.14;71.15
61537;BME280;48695;53.480;-6.300;2023-01-29T04:22:34;102191.31;;;7.10;71.28
61537;BME280;48695;53.480;-6.300;2023-01-29T04:25:02;102190.38;;;7.06;71.18
61537;BME280;48695;53.480;-6.300;2023-01-29T04:46:20;102179.41;;;6.71;71.26
61537;BME280;48695;53.480;-6.300;2023-01-29T04:51:21;102177.53;;;6.62;70.88
61537;BME280;48695;53.480;-6.300;2023-01-29T04:59:04;102161.78;;;6.53;71.14
61537;BME280;48695;53.480;-6.300;2023-01-29T05:01:31;102171.28;;;6.49;71.48
61537;BME280;48695;53.480;-6.300;2023-01-29T05:03:58;102168.63;;;6.48;71.21
61537;BME280;48695;53.480;-6.300;2023-01-29T05:06:24;102164.28;;;6.45;71.46
61537;BME280;48695;53.480;-6.300;2023-01-29T05:08:49;102156.41;;;6.42;71.31
61537;BME280;48695;53.480;-6.300;2023-01-29T05:11:15;102153.81;;;6.41;71.06
61537;BME280;48695;53.480;-6.300;2023-01-29T05:13:41;102154.66;;;6.40;71.07
61537;BME280;48695;53.480;-6.300;2023-01-29T05:18:32;102144.19;;;6.35;71.44
61537;BME280;48695;53.480;-6.300;2023-01-29T05:20:58;102148.47;;;6.33;71.42
61537;BME280;48695;53.480;-6.300;2023-01-29T05:23:27;102142.38;;;6.31;71.15
61537;BME280;48695;53.480;-6.300;2023-01-29T05:25:52;102147.50;;;6.28;71.49
61537;BME280;48695;53.480;-6.300;2023-01-29T05:28:17;102143.19;;;6.27;71.59
61537;BME280;48695;53.480;-6.300;2023-01-29T05:33:12;102141.38;;;6.23;71.83
61537;BME280;48695;53.480;-6.300;2023-01-29T05:35:38;102148.28;;;6.22;71.89
61537;BME280;48695;53.480;-6.300;2023-01-29T05:38:03;102139.63;;;6.22;71.61
61537;BME280;48695;53.480;-6.300;2023-01-29T05:40:29;102135.31;;;6.22;71.66
61537;BME280;48695;53.480;-6.300;2023-01-29T05:42:54;102130.13;;;6.22;72.00
61537;BME280;48695;53.480;-6.300;2023-01-29T05:45:19;102139.69;;;6.25;71.99
61537;BME280;48695;53.480;-6.300;2023-01-29T05:47:45;102121.56;;;6.27;71.86
61537;BME280;48695;53.480;-6.300;2023-01-29T05:50:10;102114.69;;;6.29;72.42
61537;BME280;48695;53.480;-6.300;2023-01-29T05:52:36;102121.63;;;6.31;72.14
61537;BME280;48695;53.480;-6.300;2023-01-29T05:55:01;102116.50;;;6.34;72.54
61537;BME280;48695;53.480;-6.300;2023-01-29T05:57:27;102111.34;;;6.37;72.35
61537;BME280;48695;53.480;-6.300;2023-01-29T05:59:52;102107.91;;;6.38;72.50
61537;BME280;48695;53.480;-6.300;2023-01-29T06:02:17;102104.50;;;6.41;72.31
61537;BME280;48695;53.480;-6.300;2023-01-29T06:04:42;102116.69;;;6.45;72.31
61537;BME280;48695;53.480;-6.300;2023-01-29T06:07:07;102115.84;;;6.47;72.28
61537;BME280;48695;53.480;-6.300;2023-01-29T06:09:33;102117.66;;;6.50;72.42
61537;BME280;48695;53.480;-6.300;2023-01-29T06:11:58;102117.66;;;6.52;72.36
61537;BME280;48695;53.480;-6.300;2023-01-29T06:14:23;102115.06;;;6.53;72.48
61537;BME280;48695;53.480;-6.300;2023-01-29T06:16:48;102111.69;;;6.56;72.41
61537;BME280;48695;53.480;-6.300;2023-01-29T06:19:14;102112.56;;;6.58;72.51
61537;BME280;48695;53.480;-6.300;2023-01-29T06:21:39;102103.91;;;6.59;72.71
61537;BME280;48695;53.480;-6.300;2023-01-29T06:24:04;102113.47;;;6.60;72.28
61537;BME280;48695;53.480;-6.300;2023-01-29T06:26:30;102111.78;;;6.62;72.35
61537;BME280;48695;53.480;-6.300;2023-01-29T06:28:55;102116.09;;;6.63;72.66
61537;BME280;48695;53.480;-6.300;2023-01-29T06:31:20;102117.84;;;6.64;72.72
61537;BME280;48695;53.480;-6.300;2023-01-29T06:33:45;102114.44;;;6.65;72.94
61537;BME280;48695;53.480;-6.300;2023-01-29T06:36:11;102104.06;;;6.66;72.61
61537;BME280;48695;53.480;-6.300;2023-01-29T06:38:36;102108.41;;;6.67;72.93
61537;BME280;48695;53.480;-6.300;2023-01-29T06:41:18;102116.19;;;6.69;72.74
61537;BME280;48695;53.480;-6.300;2023-01-29T06:43:44;102098.94;;;6.71;72.86
61537;BME280;48695;53.480;-6.300;2023-01-29T06:46:09;102096.38;;;6.72;72.69
61537;BME280;48695;53.480;-6.300;2023-01-29T06:48:35;102098.09;;;6.73;72.81
61537;BME280;48695;53.480;-6.300;2023-01-29T06:51:00;102091.22;;;6.75;73.02
61537;BME280;48695;53.480;-6.300;2023-01-29T06:53:26;102095.56;;;6.78;72.73
61537;BME280;48695;53.480;-6.300;2023-01-29T06:55:51;102088.59;;;6.74;72.84
61537;BME280;48695;53.480;-6.300;2023-01-29T06:58:17;102102.56;;;6.82;73.00
61537;BME280;48695;53.480;-6.300;2023-01-29T07:00:42;102099.13;;;6.83;73.19
61537;BME280;48695;53.480;-6.300;2023-01-29T07:03:07;102100.91;;;6.86;73.17
61537;BME280;48695;53.480;-6.300;2023-01-29T07:05:33;102085.34;;;6.87;73.38
61537;BME280;48695;53.480;-6.300;2023-01-29T07:07:58;102081.03;;;6.89;73.12
61537;BME280;48695;53.480;-6.300;2023-01-29T07:10:23;102090.59;;;6.90;73.13
61537;BME280;48695;53.480;-6.300;2023-01-29T07:12:48;102083.69;;;6.92;73.33
61537;BME280;48695;53.480;-6.300;2023-01-29T07:15:14;102083.75;;;6.95;73.43
61537;BME280;48695;53.480;-6.300;2023-01-29T07:17:43;102069.91;;;6.96;73.19
61537;BME280;48695;53.480;-6.300;2023-01-29T07:20:09;102075.97;;;6.98;73.34
61537;BME280;48695;53.480;-6.300;2023-01-29T07:22:34;102064.75;;;6.99;73.31
61537;BME280;48695;53.480;-6.300;2023-01-29T07:24:59;102068.22;;;7.01;72.97
61537;BME280;48695;53.480;-6.300;2023-01-29T07:27:24;102066.50;;;7.03;73.05
61537;BME280;48695;53.480;-6.300;2023-01-29T07:29:51;102068.28;;;7.05;73.30
61537;BME280;48695;53.480;-6.300;2023-01-29T07:32:16;102068.31;;;7.08;73.20
61537;BME280;48695;53.480;-6.300;2023-01-29T07:34:41;102063.97;;;7.08;73.17
61537;BME280;48695;53.480;-6.300;2023-01-29T07:37:07;102061.44;;;7.10;73.53
61537;BME280;48695;53.480;-6.300;2023-01-29T07:39:32;102055.38;;;7.11;73.12
61537;BME280;48695;53.480;-6.300;2023-01-29T07:41:57;102058.84;;;7.11;73.40
61537;BME280;48695;53.480;-6.300;2023-01-29T07:44:22;102044.13;;;7.12;73.31
61537;BME280;48695;53.480;-6.300;2023-01-29T07:46:48;102036.34;;;7.12;73.22
61537;BME280;48695;53.480;-6.300;2023-01-29T07:49:13;102041.53;;;7.12;73.04
61537;BME280;48695;53.480;-6.300;2023-01-29T07:51:39;102048.47;;;7.13;73.50
61537;BME280;48695;53.480;-6.300;2023-01-29T07:54:04;102035.47;;;7.13;73.49
61537;BME280;48695;53.480;-6.300;2023-01-29T07:56:29;102032.03;;;7.14;73.32
61537;BME280;48695;53.480;-6.300;2023-01-29T07:58:54;102020.81;;;7.15;73.62
61537;BME280;48695;53.480;-6.300;2023-01-29T08:01:20;102024.28;;;7.15;73.27
61537;BME280;48695;53.480;-6.300;2023-01-29T08:03:45;102020.81;;;7.16;73.50
61537;BME280;48695;53.480;-6.300;2023-01-29T08:06:10;102035.53;;;7.16;73.55
61537;BME280;48695;53.480;-6.300;2023-01-29T08:08:35;102030.34;;;7.16;73.64
61537;BME280;48695;53.480;-6.300;2023-01-29T08:11:01;102036.41;;;7.16;73.86
61537;BME280;48695;53.480;-6.300;2023-01-29T08:13:26;102037.28;;;7.17;73.61
61537;BME280;48695;53.480;-6.300;2023-01-29T08:15:52;102037.28;;;7.17;74.02
61537;BME280;48695;53.480;-6.300;2023-01-29T08:18:17;102026.88;;;7.17;73.77
61537;BME280;48695;53.480;-6.300;2023-01-29T08:20:42;102039.00;;;7.18;74.09
61537;BME280;48695;53.480;-6.300;2023-01-29T08:23:12;102038.16;;;7.19;73.97
61537;BME280;48695;53.480;-6.300;2023-01-29T08:25:38;102049.44;;;7.21;74.18
61537;BME280;48695;53.480;-6.300;2023-01-29T08:28:03;102039.06;;;7.24;74.00
61537;BME280;48695;53.480;-6.300;2023-01-29T08:30:30;102037.38;;;7.26;74.16
61537;BME280;48695;53.480;-6.300;2023-01-29T08:32:59;102048.66;;;7.26;74.43
61537;BME280;48695;53.480;-6.300;2023-01-29T08:35:24;102037.41;;;7.29;74.33
61537;BME280;48695;53.480;-6.300;2023-01-29T08:37:53;102047.84;;;7.32;74.57
61537;BME280;48695;53.480;-6.300;2023-01-29T08:40:19;102041.81;;;7.35;74.53
61537;BME280;48695;53.480;-6.300;2023-01-29T08:42:44;102051.38;;;7.37;74.50
61537;BME280;48695;53.480;-6.300;2023-01-29T08:45:09;102051.44;;;7.40;74.48
61537;BME280;48695;53.480;-6.300;2023-01-29T08:47:35;102054.91;;;7.41;74.42
61537;BME280;48695;53.480;-6.300;2023-01-29T08:50:00;102047.09;;;7.42;74.62
61537;BME280;48695;53.480;-6.300;2023-01-29T08:52:25;102045.38;;;7.44;74.63
61537;BME280;48695;53.480;-6.300;2023-01-29T08:54:50;102053.22;;;7.47;74.47
61537;BME280;48695;53.480;-6.300;2023-01-29T08:57:16;102048.91;;;7.49;74.51
61537;BME280;48695;53.480;-6.300;2023-01-29T08:59:41;102044.63;;;7.51;74.64
61537;BME280;48695;53.480;-6.300;2023-01-29T09:02:07;102042.03;;;7.54;74.67
61537;BME280;48695;53.480;-6.300;2023-01-29T09:04:33;102042.06;;;7.56;74.51
61537;BME280;48695;53.480;-6.300;2023-01-29T09:06:58;102041.22;;;7.59;75.01
61537;BME280;48695;53.480;-6.300;2023-01-29T09:09:23;102049.94;;;7.61;75.02
61537;BME280;48695;53.480;-6.300;2023-01-29T09:11:48;102051.66;;;7.62;74.97
61537;BME280;48695;53.480;-6.300;2023-01-29T09:14:14;102036.94;;;7.65;74.92
61537;BME280;48695;53.480;-6.300;2023-01-29T09:16:39;102054.31;;;7.66;74.84
61537;BME280;48695;53.480;-6.300;2023-01-29T09:19:04;102045.66;;;7.69;74.80
61537;BME280;48695;53.480;-6.300;2023-01-29T09:21:29;102054.38;;;7.71;74.80
61537;BME280;48695;53.480;-6.300;2023-01-29T09:23:55;102054.38;;;7.72;74.61
61537;BME280;48695;53.480;-6.300;2023-01-29T09:26:20;102054.41;;;7.75;74.78
61537;BME280;48695;53.480;-6.300;2023-01-29T09:28:45;102055.31;;;7.79;74.62
61537;BME280;48695;53.480;-6.300;2023-01-29T09:31:10;102055.34;;;7.82;75.11
61537;BME280;48695;53.480;-6.300;2023-01-29T09:33:36;102057.13;;;7.86;74.72
61537;BME280;48695;53.480;-6.300;2023-01-29T09:36:01;102058.00;;;7.88;74.96
61537;BME280;48695;53.480;-6.300;2023-01-29T09:38:27;102071.06;;;7.91;74.67
61537;BME280;48695;53.480;-6.300;2023-01-29T09:41:14;102056.34;;;7.95;74.88
61537;BME280;48695;53.480;-6.300;2023-01-29T09:46:16;102052.94;;;8.02;75.01
61537;BME280;48695;53.480;-6.300;2023-01-29T09:51:28;102050.41;;;8.06;74.61
61537;BME280;48695;53.480;-6.300;2023-01-29T09:53:57;102046.06;;;8.10;74.47
61537;BME280;48695;53.480;-6.300;2023-01-29T09:56:45;102056.50;;;8.12;74.44
61537;BME280;48695;53.480;-6.300;2023-01-29T09:59:12;102057.38;;;8.14;74.78
61537;BME280;48695;53.480;-6.300;2023-01-29T10:02:04;102054.81;;;8.17;74.82
61537;BME280;48695;53.480;-6.300;2023-01-29T10:27:47;102024.72;;;8.46;74.36
61537;BME280;48695;53.480;-6.300;2023-01-29T10:30:20;102036.88;;;8.50;74.36
61537;BME280;48695;53.480;-6.300;2023-01-29T10:32:47;102023.03;;;8.54;74.76
61537;BME280;48695;53.480;-6.300;2023-01-29T10:35:21;102015.25;;;8.57;74.69
61537;BME280;48695;53.480;-6.300;2023-01-29T10:37:47;102013.53;;;8.60;74.79
61537;BME280;48695;53.480;-6.300;2023-01-29T10:40:19;102011.78;;;8.62;74.63
61537;BME280;48695;53.480;-6.300;2023-01-29T10:42:50;102025.72;;;8.65;74.38
61537;BME280;48695;53.480;-6.300;2023-01-29T10:45:24;102019.66;;;8.68;74.68
61537;BME280;48695;53.480;-6.300;2023-01-29T11:00:46;101997.13;;;8.74;74.46
61537;BME280;48695;53.480;-6.300;2023-01-29T11:03:17;101999.72;;;8.74;74.39
61537;BME280;48695;53.480;-6.300;2023-01-29T11:05:51;102003.19;;;8.76;74.37
61537;BME280;48695;53.480;-6.300;2023-01-29T11:08:23;102002.34;;;8.76;74.16
61537;BME280;48695;53.480;-6.300;2023-01-29T11:13:46;101995.41;;;8.81;74.18
61537;BME280;48695;53.480;-6.300;2023-01-29T11:16:12;101974.59;;;8.82;74.34
61537;BME280;48695;53.480;-6.300;2023-01-29T11:18:57;101955.50;;;8.82;74.13
61537;BME280;48695;53.480;-6.300;2023-01-29T11:21:23;101953.78;;;8.84;74.48
61537;BME280;48695;53.480;-6.300;2023-01-29T11:23:49;101961.59;;;8.86;74.59
61537;BME280;48695;53.480;-6.300;2023-01-29T11:26:18;101953.78;;;8.87;74.69
61537;BME280;48695;53.480;-6.300;2023-01-29T11:28:45;101948.59;;;8.90;74.60
61537;BME280;48695;53.480;-6.300;2023-01-29T11:31:18;101942.53;;;8.93;74.53
61537;BME280;48695;53.480;-6.300;2023-01-29T11:33:45;101941.66;;;8.95;74.43
61537;BME280;48695;53.480;-6.300;2023-01-29T11:36:20;101938.22;;;8.98;74.97
61537;BME280;48695;53.480;-6.300;2023-01-29T11:38:45;101935.63;;;9.02;74.98
61537;BME280;48695;53.480;-6.300;2023-01-29T11:41:14;101920.88;;;9.07;74.82
61537;BME280;48695;53.480;-6.300;2023-01-29T11:43:42;101924.34;;;9.11;74.74
61537;BME280;48695;53.480;-6.300;2023-01-29T11:46:12;101920.00;;;9.15;74.95
61537;BME280;48695;53.480;-6.300;2023-01-29T11:51:06;101893.97;;;9.25;74.94
61537;BME280;48695;53.480;-6.300;2023-01-29T11:56:05;101880.94;;;9.36;74.75
61537;BME280;48695;53.480;-6.300;2023-01-29T11:58:31;101885.28;;;9.42;74.97
61537;BME280;48695;53.480;-6.300;2023-01-29T12:00:58;101875.75;;;9.48;74.93
61537;BME280;48695;53.480;-6.300;2023-01-29T12:03:29;101874.00;;;9.56;75.57
61537;BME280;48695;53.480;-6.300;2023-01-29T12:06:00;101871.41;;;9.62;74.82
61537;BME280;48695;53.480;-6.300;2023-01-29T12:08:27;101863.59;;;9.69;74.90
61537;BME280;48695;53.480;-6.300;2023-01-29T12:11:05;101858.38;;;9.75;74.97
61537;BME280;48695;53.480;-6.300;2023-01-29T12:13:31;101862.72;;;9.79;74.45
61537;BME280;48695;53.480;-6.300;2023-01-29T12:16:11;101846.16;;;9.83;74.67
61537;BME280;48695;53.480;-6.300;2023-01-29T12:18:38;101833.13;;;9.86;74.57
61537;BME280;48695;53.480;-6.300;2023-01-29T12:21:10;101825.31;;;9.89;74.34
61537;BME280;48695;53.480;-6.300;2023-01-29T12:26:06;101810.50;;;9.93;74.07
61537;BME280;48695;53.480;-6.300;2023-01-29T12:31:10;101808.75;;;9.98;74.31
61537;BME280;48695;53.480;-6.300;2023-01-29T12:33:48;101798.31;;;9.99;73.94
61537;BME280;48695;53.480;-6.300;2023-01-29T12:38:42;101801.78;;;10.06;74.17
61537;BME280;48695;53.480;-6.300;2023-01-29T12:41:12;101788.72;;;10.09;74.41
61537;BME280;48695;53.480;-6.300;2023-01-29T12:43:49;101784.34;;;10.12;73.93
61537;BME280;48695;53.480;-6.300;2023-01-29T12:46:21;101769.56;;;10.08;74.38
61537;BME280;48695;53.480;-6.300;2023-01-29T12:48:46;101776.50;;;10.22;74.45
61537;BME280;48695;53.480;-6.300;2023-01-29T12:51:14;101769.56;;;10.25;74.11
61537;BME280;48695;53.480;-6.300;2023-01-29T12:58:51;101760.75;;;10.43;74.48
61537;BME280;48695;53.480;-6.300;2023-01-29T13:01:26;101756.38;;;10.48;74.54
61537;BME280;48695;53.480;-6.300;2023-01-29T13:04:05;101751.13;;;10.56;74.66
61537;BME280;48695;53.480;-6.300;2023-01-29T13:06:35;101750.22;;;10.64;74.66
61537;BME280;48695;53.480;-6.300;2023-01-29T13:09:06;101720.53;;;10.73;74.54
61537;BME280;48695;53.480;-6.300;2023-01-29T13:11:47;101723.94;;;10.83;74.69
61537;BME280;48695;53.480;-6.300;2023-01-29T13:17:08;101703.72;;;11.05;74.95
61537;BME280;48695;53.480;-6.300;2023-01-29T13:19:41;101690.53;;;11.18;74.97
61537;BME280;48695;53.480;-6.300;2023-01-29T13:22:23;101683.44;;;11.33;74.44
61537;BME280;48695;53.480;-6.300;2023-01-29T13:24:49;101693.69;;;11.50;75.10
61537;BME280;48695;53.480;-6.300;2023-01-29T13:27:19;101686.53;;;11.68;74.95
61537;BME280;48695;53.480;-6.300;2023-01-29T13:29:44;101675.81;;;11.93;74.62
61537;BME280;48695;53.480;-6.300;2023-01-29T13:32:10;101679.91;;;12.12;73.48
61537;BME280;48695;53.480;-6.300;2023-01-29T13:34:36;101673.56;;;12.29;72.34
61537;BME280;48695;53.480;-6.300;2023-01-29T13:37:10;101661.25;;;12.37;72.11
61537;BME280;48695;53.480;-6.300;2023-01-29T13:39:37;101663.84;;;12.38;71.43
61537;BME280;48695;53.480;-6.300;2023-01-29T13:42:21;101655.13;;;12.38;70.72
61537;BME280;48695;53.480;-6.300;2023-01-29T13:44:54;101650.81;;;12.34;71.11
61537;BME280;48695;53.480;-6.300;2023-01-29T13:47:23;101648.19;;;12.34;72.24
61537;BME280;48695;53.480;-6.300;2023-01-29T13:49:53;101634.88;;;12.46;72.54
61537;BME280;48695;53.480;-6.300;2023-01-29T13:52:23;101636.41;;;12.62;72.67
61537;BME280;48695;53.480;-6.300;2023-01-29T13:54:54;101601.09;;;12.82;72.70
61537;BME280;48695;53.480;-6.300;2023-01-29T13:58:04;101569.72;;;12.79;72.11
61537;BME280;48695;53.480;-6.300;2023-01-29T14:10:20;101564.00;;;13.88;66.85
61537;BME280;48695;53.480;-6.300;2023-01-29T14:12:47;101565.88;;;13.85;67.14
61537;BME280;48695;53.480;-6.300;2023-01-29T14:15:25;101556.28;;;13.82;67.16
61537;BME280;48695;53.480;-6.300;2023-01-29T14:17:58;101544.94;;;13.82;66.74
61537;BME280;48695;53.480;-6.300;2023-01-29T14:20:58;101523.00;;;13.84;67.25
61537;BME280;48695;53.480;-6.300;2023-01-29T14:23:49;101540.28;;;13.94;67.96
61537;BME280;48695;53.480;-6.300;2023-01-29T14:28:42;101535.91;;;14.31;66.76
61537;BME280;48695;53.480;-6.300;2023-01-29T14:31:07;101530.25;;;14.46;65.78
61537;BME280;48695;53.480;-6.300;2023-01-29T14:33:35;101524.81;;;14.53;64.46
61537;BME280;48695;53.480;-6.300;2023-01-29T14:36:05;101518.69;;;14.53;63.91
61537;BME280;48695;53.480;-6.300;2023-01-29T14:38:33;101497.81;;;14.47;63.18
61537;BME280;48695;53.480;-6.300;2023-01-29T14:41:03;101513.00;;;14.36;62.32
61537;BME280;48695;53.480;-6.300;2023-01-29T14:43:29;101495.81;;;14.22;62.19
61537;BME280;48695;53.480;-6.300;2023-01-29T14:45:55;101486.59;;;14.06;62.07
61537;BME280;48695;53.480;-6.300;2023-01-29T14:48:44;101477.47;;;13.85;62.68
61537;BME280;48695;53.480;-6.300;2023-01-29T14:51:14;101476.09;;;13.69;62.99
61537;BME280;48695;53.480;-6.300;2023-01-29T14:56:21;101508.13;;;13.44;63.72
61537;BME280;48695;53.480;-6.300;2023-01-29T14:58:49;101509.19;;;13.36;63.90
61537;BME280;48695;53.480;-6.300;2023-01-29T15:01:27;101538.19;;;13.30;64.48
61537;BME280;48695;53.480;-6.300;2023-01-29T15:03:59;101539.09;;;13.29;64.85
61537;BME280;48695;53.480;-6.300;2023-01-29T15:06:28;101500.59;;;13.28;64.25
61537;BME280;48695;53.480;-6.300;2023-01-29T15:08:59;101503.31;;;13.24;64.37
61537;BME280;48695;53.480;-6.300;2023-01-29T15:11:30;101498.13;;;13.20;64.22